createdAt,value
2023-03-19T00:00:27.705Z,0
2023-03-19T00:01:28.224Z,0
2023-03-19T00:02:29.428Z,0
2023-03-19T00:03:29.932Z,0
2023-03-19T00:04:30.712Z,0
2023-03-19T00:05:31.393Z,0
2023-03-19T00:06:31.381Z,0
2023-03-19T00:07:32.301Z,0
2023-03-19T00:08:33.318Z,0
2023-03-19T00:09:33.515Z,0
2023-03-19T00:10:34.166Z,0
2023-03-19T00:11:35.412Z,0
2023-03-19T00:12:35.633Z,0
2023-03-19T00:13:36.887Z,0
2023-03-19T00:14:37.084Z,0
2023-03-19T00:15:37.381Z,0
2023-03-19T00:16:38.740Z,0
2023-03-19T00:17:38.738Z,0
2023-03-19T00:18:39.380Z,0
2023-03-19T00:19:39.684Z,0
2023-03-19T00:20:39.903Z,0
2023-03-19T00:21:42.153Z,0
2023-03-19T00:22:40.594Z,0
2023-03-19T00:23:41.529Z,0
2023-03-19T00:24:42.155Z,0
2023-03-19T00:25:43.869Z,0
2023-03-19T00:26:44.373Z,0
2023-03-19T00:27:44.469Z,0
2023-03-19T00:28:44.543Z,0
2023-03-19T00:29:44.736Z,0
2023-03-19T00:30:46.118Z,0
2023-03-19T00:31:45.700Z,0
2023-03-19T00:32:47.246Z,0
2023-03-19T00:33:47.824Z,0
2023-03-19T00:34:48.397Z,0
2023-03-19T00:35:49.038Z,0
2023-03-19T00:36:48.728Z,0
2023-03-19T00:37:49.985Z,0
2023-03-19T00:38:51.039Z,0
2023-03-19T00:39:50.960Z,0
2023-03-19T00:40:52.170Z,0
2023-03-19T00:41:52.380Z,0
2023-03-19T00:42:53.329Z,0
2023-03-19T00:43:53.550Z,0
2023-03-19T00:44:54.528Z,0
2023-03-19T00:45:55.724Z,0
2023-03-19T00:46:56.005Z,0
2023-03-19T00:47:56.213Z,0
2023-03-19T00:48:56.411Z,0
2023-03-19T00:49:58.209Z,0
2023-03-19T00:50:58.729Z,0
2023-03-19T00:51:59.695Z,0
2023-03-19T00:52:59.917Z,0
2023-03-19T00:53:59.849Z,0
2023-03-19T00:55:00.497Z,0
2023-03-19T00:55:59.873Z,0
2023-03-19T00:57:00.530Z,0
2023-03-19T00:58:02.044Z,0
2023-03-19T00:59:02.376Z,0
2023-03-19T01:00:02.589Z,0
2023-03-19T01:01:02.385Z,0
2023-03-19T01:02:03.402Z,0
2023-03-19T01:03:03.770Z,0
2023-03-19T01:04:04.855Z,0
2023-03-19T01:05:05.224Z,0
2023-03-19T01:06:06.162Z,0
2023-03-19T01:07:07.098Z,0
2023-03-19T01:08:07.751Z,0
2023-03-19T01:09:07.929Z,0
2023-03-19T01:10:08.505Z,0
2023-03-19T01:11:09.726Z,0
2023-03-19T01:12:09.091Z,0
2023-03-19T01:13:10.046Z,0
2023-03-19T01:14:10.972Z,0
2023-03-19T01:15:11.912Z,0
2023-03-19T01:16:12.163Z,0
2023-03-19T01:17:12.586Z,0
2023-03-19T01:18:13.529Z,0
2023-03-19T01:19:13.078Z,0
2023-03-19T01:20:14.098Z,0
2023-03-19T01:21:14.340Z,0
2023-03-19T01:22:15.267Z,0
2023-03-19T01:23:15.470Z,0
2023-03-19T01:24:15.829Z,0
2023-03-19T01:25:17.046Z,0
2023-03-19T01:26:17.736Z,0
2023-03-19T01:27:17.689Z,0
2023-03-19T01:28:18.624Z,0
2023-03-19T01:29:19.361Z,0
2023-03-19T01:30:20.396Z,0
2023-03-19T01:31:21.565Z,0
2023-03-19T01:32:21.855Z,0
2023-03-19T01:33:24.388Z,0
2023-03-19T01:34:22.847Z,0
2023-03-19T01:35:24.276Z,0
2023-03-19T01:36:24.254Z,0
2023-03-19T01:37:25.163Z,0
2023-03-19T01:38:26.074Z,0
2023-03-19T01:39:26.810Z,0
2023-03-19T01:40:27.774Z,0
2023-03-19T01:41:28.395Z,0
2023-03-19T01:42:28.038Z,0
2023-03-19T01:43:29.272Z,0
2023-03-19T01:44:29.196Z,0
2023-03-19T01:45:29.392Z,0
2023-03-19T01:46:30.471Z,0
2023-03-19T01:47:30.745Z,0
2023-03-19T01:48:31.520Z,0
2023-03-19T01:49:32.066Z,0
2023-03-19T01:50:33.129Z,0
2023-03-19T01:51:32.452Z,0
2023-03-19T01:52:33.132Z,0
2023-03-19T01:53:33.505Z,0
2023-03-19T01:54:34.461Z,0
2023-03-19T01:55:35.095Z,0
2023-03-19T01:56:35.590Z,0
2023-03-19T01:57:35.807Z,0
2023-03-19T01:58:37.190Z,0
2023-03-19T01:59:36.242Z,0
2023-03-19T02:00:37.973Z,0
2023-03-19T02:01:38.061Z,0
2023-03-19T02:02:38.439Z,0
2023-03-19T02:03:39.383Z,0
2023-03-19T02:04:39.858Z,0
2023-03-19T02:05:40.233Z,0
2023-03-19T02:06:40.177Z,0
2023-03-19T02:07:41.127Z,0
2023-03-19T02:08:42.619Z,0
2023-03-19T02:09:43.132Z,0
2023-03-19T02:10:43.910Z,0
2023-03-19T02:11:44.189Z,0
2023-03-19T02:12:44.107Z,0
2023-03-19T02:13:44.799Z,0
2023-03-19T02:14:46.038Z,0
2023-03-19T02:15:46.935Z,0
2023-03-19T02:16:47.249Z,0
2023-03-19T02:17:48.300Z,0
2023-03-19T02:18:48.518Z,0
2023-03-19T02:19:49.556Z,0
2023-03-19T02:20:50.288Z,0
2023-03-19T02:21:50.225Z,0
2023-03-19T02:22:51.163Z,0
2023-03-19T02:23:51.673Z,0
2023-03-19T02:24:51.587Z,0
2023-03-19T02:25:52.089Z,0
2023-03-19T02:26:53.011Z,0
2023-03-19T02:27:53.667Z,0
2023-03-19T02:28:54.333Z,0
2023-03-19T02:29:55.675Z,0
2023-03-19T02:30:55.819Z,0
2023-03-19T02:31:56.031Z,0
2023-03-19T02:32:56.856Z,0
2023-03-19T02:33:57.461Z,0
2023-03-19T02:34:58.388Z,0
2023-03-19T02:35:59.302Z,0
2023-03-19T02:36:59.607Z,0
2023-03-19T02:38:00.275Z,0
2023-03-19T02:39:01.490Z,0
2023-03-19T02:40:02.001Z,0
2023-03-19T02:41:02.500Z,0
2023-03-19T02:42:02.708Z,0
2023-03-19T02:43:02.954Z,0
2023-03-19T02:44:03.260Z,0
2023-03-19T02:45:02.908Z,0
2023-03-19T02:46:03.831Z,0
2023-03-19T02:47:04.927Z,0
2023-03-19T02:48:05.428Z,0
2023-03-19T02:49:05.061Z,0
2023-03-19T02:50:06.387Z,0
2023-03-19T02:51:06.983Z,0
2023-03-19T02:52:07.232Z,0
2023-03-19T02:53:08.447Z,0
2023-03-19T02:54:08.401Z,0
2023-03-19T02:55:08.630Z,0
2023-03-19T02:56:08.279Z,0
2023-03-19T02:57:08.922Z,0
2023-03-19T02:58:09.883Z,0
2023-03-19T02:59:10.813Z,0
2023-03-19T03:00:11.606Z,0
2023-03-19T03:01:12.497Z,0
2023-03-19T03:02:13.534Z,0
2023-03-19T03:03:14.090Z,0
2023-03-19T03:04:14.583Z,0
2023-03-19T03:05:14.526Z,0
2023-03-19T03:06:15.155Z,0
2023-03-19T03:07:15.676Z,0
2023-03-19T03:08:16.220Z,0
2023-03-19T03:09:16.711Z,0
2023-03-19T03:10:17.002Z,0
2023-03-19T03:11:17.232Z,0
2023-03-19T03:12:17.877Z,0
2023-03-19T03:13:18.790Z,0
2023-03-19T03:14:19.157Z,0
2023-03-19T03:15:20.078Z,0
2023-03-19T03:16:21.579Z,0
2023-03-19T03:17:21.853Z,0
2023-03-19T03:18:22.653Z,0
2023-03-19T03:19:22.624Z,0
2023-03-19T03:20:22.957Z,0
2023-03-19T03:21:23.633Z,0
2023-03-19T03:22:23.603Z,0
2023-03-19T03:23:24.534Z,0
2023-03-19T03:24:24.450Z,0
2023-03-19T03:25:25.672Z,0
2023-03-19T03:26:26.332Z,0
2023-03-19T03:27:27.560Z,0
2023-03-19T03:28:28.538Z,0
2023-03-19T03:29:29.450Z,0
2023-03-19T03:30:30.729Z,0
2023-03-19T03:31:30.929Z,0
2023-03-19T03:32:31.258Z,0
2023-03-19T03:33:31.653Z,0
2023-03-19T03:34:32.575Z,0
2023-03-19T03:35:33.633Z,0
2023-03-19T03:36:34.843Z,0
2023-03-19T03:37:35.184Z,0
2023-03-19T03:38:36.386Z,0
2023-03-19T03:39:36.314Z,0
2023-03-19T03:40:36.994Z,0
2023-03-19T03:41:36.628Z,0
2023-03-19T03:42:37.610Z,0
2023-03-19T03:43:37.965Z,0
2023-03-19T03:44:38.899Z,0
2023-03-19T03:45:40.352Z,0
2023-03-19T03:46:41.044Z,0
2023-03-19T03:47:41.977Z,0
2023-03-19T03:48:42.635Z,0
2023-03-19T03:49:43.569Z,0
2023-03-19T03:50:44.105Z,0
2023-03-19T03:51:45.881Z,0
2023-03-19T03:52:45.831Z,0
2023-03-19T03:53:46.792Z,0
2023-03-19T03:54:47.427Z,0
2023-03-19T03:55:47.062Z,0
2023-03-19T03:56:48.000Z,0
2023-03-19T03:57:47.989Z,0
2023-03-19T03:58:48.694Z,0
2023-03-19T03:59:49.336Z,0
2023-03-19T04:00:50.970Z,0
2023-03-19T04:01:50.931Z,0
2023-03-19T04:02:51.535Z,0
2023-03-19T04:03:52.300Z,0
2023-03-19T04:04:52.521Z,0
2023-03-19T04:05:53.174Z,0
2023-03-19T04:06:54.511Z,0
2023-03-19T04:07:54.763Z,0
2023-03-19T04:08:54.682Z,0
2023-03-19T04:09:56.187Z,0
2023-03-19T04:10:56.459Z,0
2023-03-19T04:11:57.308Z,0
2023-03-19T04:12:57.277Z,0
2023-03-19T04:13:58.189Z,0
2023-03-19T04:14:58.682Z,0
2023-03-19T04:15:58.319Z,0
2023-03-19T04:16:59.443Z,0
2023-03-19T04:18:00.165Z,0
2023-03-19T04:19:00.822Z,0
2023-03-19T04:20:01.747Z,0
2023-03-19T04:21:02.089Z,0
2023-03-19T04:22:03.561Z,0
2023-03-19T04:23:03.552Z,0
2023-03-19T04:24:05.110Z,0
2023-03-19T04:25:05.340Z,0
2023-03-19T04:26:05.595Z,0
2023-03-19T04:27:05.327Z,0
2023-03-19T04:28:06.547Z,0
2023-03-19T04:29:07.753Z,0
2023-03-19T04:30:07.111Z,0
2023-03-19T04:31:08.022Z,0
2023-03-19T04:32:08.122Z,0
2023-03-19T04:33:09.615Z,0
2023-03-19T04:34:09.273Z,0
2023-03-19T04:35:10.480Z,0
2023-03-19T04:36:10.648Z,0
2023-03-19T04:37:11.961Z,0
2023-03-19T04:38:11.911Z,0
2023-03-19T04:39:12.873Z,0
2023-03-19T04:40:13.367Z,0
2023-03-19T04:41:13.693Z,0
2023-03-19T04:42:14.254Z,0
2023-03-19T04:43:13.628Z,0
2023-03-19T04:44:13.998Z,0
2023-03-19T04:45:15.520Z,0
2023-03-19T04:46:15.668Z,0
2023-03-19T04:47:16.284Z,0
2023-03-19T04:48:16.234Z,0
2023-03-19T04:49:17.442Z,0
2023-03-19T04:50:17.946Z,0
2023-03-19T04:51:17.653Z,0
2023-03-19T04:52:19.008Z,0
2023-03-19T04:53:19.183Z,0
2023-03-19T04:54:20.111Z,0
2023-03-19T04:55:20.491Z,0
2023-03-19T04:56:21.413Z,0
2023-03-19T04:57:21.604Z,0
2023-03-19T04:58:21.557Z,0
2023-03-19T04:59:23.073Z,0
2023-03-19T05:00:22.961Z,0
2023-03-19T05:01:23.448Z,0
2023-03-19T05:02:24.172Z,0
2023-03-19T05:03:25.089Z,0
2023-03-19T05:04:26.802Z,0
2023-03-19T05:05:26.721Z,0
2023-03-19T05:06:27.645Z,4
2023-03-19T05:07:28.941Z,4
2023-03-19T05:08:28.912Z,0
2023-03-19T05:09:29.837Z,0
2023-03-19T05:10:31.065Z,4
2023-03-19T05:11:31.699Z,4
2023-03-19T05:12:31.919Z,4
2023-03-19T05:13:32.954Z,4
2023-03-19T05:14:33.158Z,4
2023-03-19T05:15:32.904Z,8
2023-03-19T05:16:34.002Z,8
2023-03-19T05:17:34.956Z,8
2023-03-19T05:18:34.865Z,8
2023-03-19T05:19:35.911Z,8
2023-03-19T05:20:37.075Z,8
2023-03-19T05:21:37.432Z,12
2023-03-19T05:22:38.767Z,12
2023-03-19T05:23:39.322Z,16
2023-03-19T05:24:39.539Z,16
2023-03-19T05:25:40.182Z,24
2023-03-19T05:26:40.992Z,24
2023-03-19T05:27:41.960Z,28
2023-03-19T05:28:43.218Z,32
2023-03-19T05:29:46.846Z,36
2023-03-19T05:30:45.041Z,40
2023-03-19T05:31:45.922Z,44
2023-03-19T05:32:47.323Z,48
2023-03-19T05:33:47.314Z,52
2023-03-19T05:34:47.276Z,60
2023-03-19T05:35:48.980Z,68
2023-03-19T05:36:49.217Z,76
2023-03-19T05:37:49.811Z,84
2023-03-19T05:38:50.315Z,92
2023-03-19T05:39:50.540Z,100
2023-03-19T05:40:50.192Z,108
2023-03-19T05:41:51.519Z,120
2023-03-19T05:42:51.753Z,124
2023-03-19T05:43:51.385Z,136
2023-03-19T05:44:52.617Z,140
2023-03-19T05:45:52.271Z,148
2023-03-19T05:46:53.475Z,160
2023-03-19T05:47:53.683Z,164
2023-03-19T05:48:54.372Z,164
2023-03-19T05:49:55.329Z,172
2023-03-19T05:50:55.522Z,172
2023-03-19T05:51:56.586Z,172
2023-03-19T05:52:57.175Z,168
2023-03-19T05:53:57.128Z,172
2023-03-19T05:54:57.788Z,184
2023-03-19T05:55:58.744Z,180
2023-03-19T05:56:59.959Z,176
2023-03-19T05:57:59.981Z,160
2023-03-19T05:59:00.978Z,148
2023-03-19T06:00:01.906Z,144
2023-03-19T06:01:03.122Z,140
2023-03-19T06:02:02.872Z,140
2023-03-19T06:03:04.082Z,136
2023-03-19T06:04:06.177Z,132
2023-03-19T06:05:04.599Z,128
2023-03-19T06:06:05.114Z,128
2023-03-19T06:07:05.438Z,128
2023-03-19T06:08:05.741Z,124
2023-03-19T06:09:06.258Z,120
2023-03-19T06:10:06.489Z,116
2023-03-19T06:11:07.411Z,116
2023-03-19T06:12:08.120Z,112
2023-03-19T06:13:08.492Z,112
2023-03-19T06:14:09.424Z,116
2023-03-19T06:15:09.340Z,120
2023-03-19T06:16:11.010Z,124
2023-03-19T06:17:11.353Z,128
2023-03-19T06:18:11.842Z,128
2023-03-19T06:19:11.496Z,128
2023-03-19T06:20:12.720Z,132
2023-03-19T06:21:13.228Z,136
2023-03-19T06:22:13.835Z,140
2023-03-19T06:23:16.240Z,144
2023-03-19T06:24:14.544Z,140
2023-03-19T06:25:14.760Z,140
2023-03-19T06:26:15.737Z,136
2023-03-19T06:27:16.386Z,136
2023-03-19T06:28:17.374Z,140
2023-03-19T06:29:17.686Z,144
2023-03-19T06:30:17.900Z,144
2023-03-19T06:31:18.085Z,144
2023-03-19T06:32:18.661Z,144
2023-03-19T06:33:19.742Z,140
2023-03-19T06:34:20.667Z,140
2023-03-19T06:35:21.752Z,136
2023-03-19T06:36:22.447Z,136
2023-03-19T06:37:23.382Z,136
2023-03-19T06:38:23.755Z,132
2023-03-19T06:39:24.008Z,136
2023-03-19T06:40:24.932Z,140
2023-03-19T06:41:24.921Z,144
2023-03-19T06:42:25.688Z,148
2023-03-19T06:43:25.681Z,148
2023-03-19T06:44:27.192Z,144
2023-03-19T06:45:27.491Z,144
2023-03-19T06:46:27.699Z,148
2023-03-19T06:47:27.898Z,148
2023-03-19T06:48:28.248Z,152
2023-03-19T06:49:29.257Z,156
2023-03-19T06:50:29.913Z,160
2023-03-19T06:51:30.470Z,160
2023-03-19T06:52:30.812Z,164
2023-03-19T06:53:32.158Z,168
2023-03-19T06:54:32.632Z,164
2023-03-19T06:55:32.830Z,156
2023-03-19T06:56:33.765Z,160
2023-03-19T06:57:34.394Z,156
2023-03-19T06:58:35.053Z,156
2023-03-19T06:59:34.700Z,164
2023-03-19T07:00:36.655Z,168
2023-03-19T07:01:36.453Z,176
2023-03-19T07:02:37.107Z,184
2023-03-19T07:03:37.034Z,192
2023-03-19T07:04:38.387Z,200
2023-03-19T07:05:38.606Z,212
2023-03-19T07:06:38.827Z,220
2023-03-19T07:07:39.047Z,228
2023-03-19T07:08:39.893Z,228
2023-03-19T07:09:39.842Z,228
2023-03-19T07:10:41.945Z,224
2023-03-19T07:11:42.295Z,224
2023-03-19T07:12:42.596Z,220
2023-03-19T07:13:42.809Z,220
2023-03-19T07:14:43.736Z,212
2023-03-19T07:15:44.956Z,208
2023-03-19T07:16:45.552Z,200
2023-03-19T07:17:45.974Z,200
2023-03-19T07:18:46.897Z,192
2023-03-19T07:19:47.563Z,188
2023-03-19T07:20:48.199Z,184
2023-03-19T07:21:49.439Z,180
2023-03-19T07:22:50.196Z,180
2023-03-19T07:23:50.587Z,180
2023-03-19T07:24:50.812Z,188
2023-03-19T07:25:51.335Z,192
2023-03-19T07:26:51.308Z,200
2023-03-19T07:27:55.553Z,212
2023-03-19T07:28:52.934Z,224
2023-03-19T07:29:53.860Z,240
2023-03-19T07:30:54.517Z,248
2023-03-19T07:31:55.293Z,256
2023-03-19T07:32:56.797Z,260
2023-03-19T07:33:56.286Z,260
2023-03-19T07:34:56.640Z,260
2023-03-19T07:35:57.791Z,268
2023-03-19T07:36:57.805Z,276
2023-03-19T07:37:58.748Z,284
2023-03-19T07:38:59.051Z,292
2023-03-19T07:39:59.304Z,296
2023-03-19T07:41:13.329Z,304
2023-03-19T07:42:01.240Z,304
2023-03-19T07:43:01.690Z,308
2023-03-19T07:44:01.939Z,312
2023-03-19T07:45:03.164Z,312
2023-03-19T07:46:02.979Z,316
2023-03-19T07:47:03.117Z,324
2023-03-19T07:48:03.191Z,328
2023-03-19T07:49:04.136Z,340
2023-03-19T07:50:05.653Z,344
2023-03-19T07:51:05.921Z,348
2023-03-19T07:52:05.564Z,340
2023-03-19T07:53:06.604Z,340
2023-03-19T07:54:07.934Z,332
2023-03-19T07:55:07.926Z,332
2023-03-19T07:56:08.591Z,324
2023-03-19T07:57:09.502Z,324
2023-03-19T07:58:10.147Z,328
2023-03-19T07:59:10.489Z,344
2023-03-19T08:00:11.750Z,360
2023-03-19T08:01:12.985Z,376
2023-03-19T08:02:13.591Z,392
2023-03-19T08:03:13.650Z,404
2023-03-19T08:04:14.618Z,404
2023-03-19T08:05:14.352Z,404
2023-03-19T08:06:15.562Z,404
2023-03-19T08:07:16.490Z,404
2023-03-19T08:08:17.091Z,416
2023-03-19T08:09:17.674Z,436
2023-03-19T08:10:17.642Z,464
2023-03-19T08:11:18.892Z,480
2023-03-19T08:12:19.072Z,492
2023-03-19T08:13:19.839Z,516
2023-03-19T08:14:20.343Z,528
2023-03-19T08:15:19.727Z,536
2023-03-19T08:16:20.967Z,556
2023-03-19T08:17:21.143Z,592
2023-03-19T08:18:21.798Z,648
2023-03-19T08:19:22.032Z,708
2023-03-19T08:20:22.685Z,752
2023-03-19T08:21:22.974Z,776
2023-03-19T08:22:23.176Z,800
2023-03-19T08:23:23.810Z,816
2023-03-19T08:24:24.100Z,824
2023-03-19T08:25:24.125Z,828
2023-03-19T08:26:25.338Z,844
2023-03-19T08:27:26.221Z,864
2023-03-19T08:28:26.578Z,888
2023-03-19T08:29:30.345Z,916
2023-03-19T08:30:28.049Z,944
2023-03-19T08:31:29.208Z,976
2023-03-19T08:32:29.421Z,1008
2023-03-19T08:33:30.271Z,1040
2023-03-19T08:34:29.951Z,1036
2023-03-19T08:35:30.673Z,1000
2023-03-19T08:36:31.164Z,908
2023-03-19T08:37:31.376Z,844
2023-03-19T08:38:32.035Z,808
2023-03-19T08:39:33.327Z,780
2023-03-19T08:40:34.096Z,812
2023-03-19T08:41:34.154Z,880
2023-03-19T08:42:34.681Z,928
2023-03-19T08:43:35.027Z,900
2023-03-19T08:44:35.250Z,860
2023-03-19T08:45:36.190Z,840
2023-03-19T08:46:37.366Z,868
2023-03-19T08:47:37.752Z,944
2023-03-19T08:48:39.692Z,1040
2023-03-19T08:49:38.792Z,1152
2023-03-19T08:50:39.789Z,1272
2023-03-19T08:51:39.982Z,1364
2023-03-19T08:52:40.202Z,1428
2023-03-19T08:53:41.247Z,1508
2023-03-19T08:54:41.601Z,1644
2023-03-19T08:55:42.105Z,1780
2023-03-19T08:56:42.034Z,1924
2023-03-19T08:57:42.982Z,2044
2023-03-19T08:58:43.634Z,2256
2023-03-19T08:59:45.488Z,2460
2023-03-19T09:00:44.206Z,2544
2023-03-19T09:01:44.206Z,2744
2023-03-19T09:02:44.961Z,2920
2023-03-19T09:03:46.446Z,2904
2023-03-19T09:04:47.266Z,2740
2023-03-19T09:05:46.597Z,2680
2023-03-19T09:06:47.905Z,2536
2023-03-19T09:07:48.133Z,2456
2023-03-19T09:08:48.638Z,2460
2023-03-19T09:09:49.230Z,2536
2023-03-19T09:10:51.421Z,2704
2023-03-19T09:11:50.062Z,2876
2023-03-19T09:12:51.677Z,3040
2023-03-19T09:13:50.994Z,3056
2023-03-19T09:14:50.929Z,3084
2023-03-19T09:15:52.050Z,3136
2023-03-19T09:16:52.106Z,3300
2023-03-19T09:17:53.052Z,3304
2023-03-19T09:18:53.968Z,3056
2023-03-19T09:19:55.355Z,2984
2023-03-19T09:20:55.019Z,2932
2023-03-19T09:21:55.964Z,2824
2023-03-19T09:22:57.206Z,2808
2023-03-19T09:23:57.566Z,2820
2023-03-19T09:24:58.362Z,2964
2023-03-19T09:25:58.618Z,3356
2023-03-19T09:26:59.553Z,3556
2023-03-19T09:28:00.786Z,3472
2023-03-19T09:29:01.006Z,3520
2023-03-19T09:30:01.517Z,3536
2023-03-19T09:31:02.129Z,3556
2023-03-19T09:32:02.466Z,3628
2023-03-19T09:33:02.940Z,4364
2023-03-19T09:34:03.159Z,4416
2023-03-19T09:35:03.705Z,7616
2023-03-19T09:36:03.961Z,6380
2023-03-19T09:37:04.233Z,8112
2023-03-19T09:38:05.161Z,3440
2023-03-19T09:39:05.666Z,2996
2023-03-19T09:40:06.406Z,2756
2023-03-19T09:41:06.384Z,2632
2023-03-19T09:42:07.349Z,2684
2023-03-19T09:43:08.564Z,2824
2023-03-19T09:44:08.634Z,2904
2023-03-19T09:45:09.589Z,2880
2023-03-19T09:46:10.133Z,2800
2023-03-19T09:47:10.460Z,2808
2023-03-19T09:48:10.137Z,2884
2023-03-19T09:49:11.668Z,3020
2023-03-19T09:50:11.340Z,3092
2023-03-19T09:51:12.585Z,3232
2023-03-19T09:52:15.479Z,3376
2023-03-19T09:53:13.147Z,3524
2023-03-19T09:54:14.179Z,3604
2023-03-19T09:55:15.504Z,3492
2023-03-19T09:56:15.729Z,3476
2023-03-19T09:57:20.539Z,3548
2023-03-19T09:58:17.475Z,3696
2023-03-19T09:59:17.733Z,3724
2023-03-19T10:00:18.662Z,3700
2023-03-19T10:01:19.956Z,3684
2023-03-19T10:02:20.185Z,3460
2023-03-19T10:03:20.397Z,2996
2023-03-19T10:04:21.019Z,2788
2023-03-19T10:05:20.957Z,2700
2023-03-19T10:06:22.188Z,2608
2023-03-19T10:07:22.129Z,2520
2023-03-19T10:08:22.816Z,2436
2023-03-19T10:09:22.774Z,2400
2023-03-19T10:10:24.080Z,2464
2023-03-19T10:11:24.456Z,2584
2023-03-19T10:12:25.018Z,2668
2023-03-19T10:13:25.235Z,2684
2023-03-19T10:14:26.539Z,2660
2023-03-19T10:15:26.782Z,2636
2023-03-19T10:16:27.743Z,2624
2023-03-19T10:17:27.704Z,2540
2023-03-19T10:18:28.228Z,2444
2023-03-19T10:19:28.738Z,2396
2023-03-19T10:20:28.728Z,2444
2023-03-19T10:21:29.800Z,2540
2023-03-19T10:22:30.712Z,2652
2023-03-19T10:23:31.957Z,2744
2023-03-19T10:24:32.343Z,2828
2023-03-19T10:25:33.251Z,2840
2023-03-19T10:26:33.331Z,2856
2023-03-19T10:27:34.285Z,2892
2023-03-19T10:28:35.491Z,2804
2023-03-19T10:29:35.713Z,2700
2023-03-19T10:30:36.650Z,2680
2023-03-19T10:31:37.240Z,2720
2023-03-19T10:32:38.444Z,2788
2023-03-19T10:33:38.769Z,2928
2023-03-19T10:34:39.797Z,3112
2023-03-19T10:35:41.547Z,3192
2023-03-19T10:36:41.236Z,3216
2023-03-19T10:37:41.196Z,3116
2023-03-19T10:38:42.131Z,2888
2023-03-19T10:39:42.108Z,2544
2023-03-19T10:40:43.747Z,2176
2023-03-19T10:41:43.725Z,1908
2023-03-19T10:42:44.714Z,1768
2023-03-19T10:43:45.371Z,1716
2023-03-19T10:44:46.701Z,1700
2023-03-19T10:45:50.160Z,1708
2023-03-19T10:46:48.123Z,1732
2023-03-19T10:47:49.370Z,1764
2023-03-19T10:48:50.304Z,1832
2023-03-19T10:49:50.810Z,1948
2023-03-19T10:50:51.470Z,2108
2023-03-19T10:51:52.719Z,2176
2023-03-19T10:52:52.651Z,2156
2023-03-19T10:53:53.588Z,2152
2023-03-19T10:54:55.244Z,2108
2023-03-19T10:55:54.712Z,2096
2023-03-19T10:56:55.294Z,2024
2023-03-19T10:57:54.718Z,1916
2023-03-19T10:58:55.367Z,1776
2023-03-19T10:59:55.916Z,1624
2023-03-19T11:00:56.892Z,1512
2023-03-19T11:01:57.201Z,1456
2023-03-19T11:02:57.619Z,1452
2023-03-19T11:03:58.953Z,1460
2023-03-19T11:04:59.134Z,1492
2023-03-19T11:06:00.352Z,1544
2023-03-19T11:07:00.303Z,1624
2023-03-19T11:08:01.842Z,1712
2023-03-19T11:09:02.081Z,1752
2023-03-19T11:10:03.312Z,1844
2023-03-19T11:11:03.664Z,1968
2023-03-19T11:12:04.191Z,2088
2023-03-19T11:13:04.109Z,2204
2023-03-19T11:14:05.621Z,2300
2023-03-19T11:15:06.112Z,2472
2023-03-19T11:16:07.389Z,2664
2023-03-19T11:17:10.618Z,2848
2023-03-19T11:18:07.824Z,3052
2023-03-19T11:19:07.765Z,3360
2023-03-19T11:20:09.102Z,3840
2023-03-19T11:21:09.858Z,4096
2023-03-19T11:22:10.382Z,4372
2023-03-19T11:23:10.329Z,4776
2023-03-19T11:24:11.312Z,4816
2023-03-19T11:25:11.944Z,4528
2023-03-19T11:26:12.585Z,4088
2023-03-19T11:27:12.816Z,3692
2023-03-19T11:28:13.476Z,3460
2023-03-19T11:29:14.548Z,3324
2023-03-19T11:30:15.054Z,3312
2023-03-19T11:31:15.337Z,3404
2023-03-19T11:32:32.542Z,3768
2023-03-19T11:33:16.149Z,3840
2023-03-19T11:34:16.569Z,4012
2023-03-19T11:35:16.835Z,4144
2023-03-19T11:36:17.732Z,3956
2023-03-19T11:37:17.421Z,3988
2023-03-19T11:38:18.637Z,4432
2023-03-19T11:39:19.175Z,4816
2023-03-19T11:40:19.828Z,5068
2023-03-19T11:41:21.265Z,4348
2023-03-19T11:42:21.501Z,3952
2023-03-19T11:43:22.213Z,5464
2023-03-19T11:44:23.170Z,5936
2023-03-19T11:45:23.314Z,6220
2023-03-19T11:46:23.267Z,6388
2023-03-19T11:47:37.598Z,6008
2023-03-19T11:48:24.549Z,5852
2023-03-19T11:49:25.504Z,5816
2023-03-19T11:50:25.723Z,5628
2023-03-19T11:51:26.963Z,5640
2023-03-19T11:52:26.945Z,5876
2023-03-19T11:53:27.937Z,6036
2023-03-19T11:54:28.917Z,5684
2023-03-19T11:55:29.675Z,4260
2023-03-19T11:56:31.346Z,3908
2023-03-19T11:57:31.607Z,3220
2023-03-19T11:58:31.836Z,3204
2023-03-19T11:59:32.496Z,3564
2023-03-19T12:00:33.420Z,3912
2023-03-19T12:01:34.488Z,3844
2023-03-19T12:02:35.742Z,3892
2023-03-19T12:03:35.727Z,3916
2023-03-19T12:04:36.045Z,3972
2023-03-19T12:05:36.673Z,4044
2023-03-19T12:06:37.066Z,4244
2023-03-19T12:07:37.010Z,5016
2023-03-19T12:08:37.660Z,4504
2023-03-19T12:09:37.925Z,5592
2023-03-19T12:10:39.627Z,6484
2023-03-19T12:11:40.236Z,6360
2023-03-19T12:12:40.492Z,3780
2023-03-19T12:13:40.430Z,3252
2023-03-19T12:14:41.377Z,3096
2023-03-19T12:15:43.000Z,2964
2023-03-19T12:16:52.231Z,3004
2023-03-19T12:17:42.893Z,3016
2023-03-19T12:18:43.850Z,3048
2023-03-19T12:19:44.086Z,3196
2023-03-19T12:20:45.038Z,3020
2023-03-19T12:21:45.542Z,2904
2023-03-19T12:22:46.203Z,2848
2023-03-19T12:23:47.119Z,2916
2023-03-19T12:24:48.359Z,3028
2023-03-19T12:25:48.515Z,3152
2023-03-19T12:26:49.138Z,3088
2023-03-19T12:27:49.376Z,3024
2023-03-19T12:28:50.038Z,2944
2023-03-19T12:29:50.676Z,2804
2023-03-19T12:30:52.187Z,2764
2023-03-19T12:31:52.445Z,2788
2023-03-19T12:32:52.620Z,2828
2023-03-19T12:33:52.626Z,2872
2023-03-19T12:34:53.575Z,2904
2023-03-19T12:35:54.254Z,2948
2023-03-19T12:36:54.523Z,3320
2023-03-19T12:37:54.740Z,3656
2023-03-19T12:38:55.012Z,4028
2023-03-19T12:39:55.271Z,3076
2023-03-19T12:40:56.271Z,2504
2023-03-19T12:41:56.879Z,2284
2023-03-19T12:42:57.451Z,2312
2023-03-19T12:43:57.705Z,2392
2023-03-19T12:44:58.253Z,2492
2023-03-19T12:45:58.449Z,2564
2023-03-19T12:47:00.934Z,2664
2023-03-19T12:48:00.149Z,2840
2023-03-19T12:49:01.100Z,3148
2023-03-19T12:50:00.787Z,3396
2023-03-19T12:51:02.015Z,4640
2023-03-19T12:52:02.703Z,3892
2023-03-19T12:53:04.011Z,2868
2023-03-19T12:54:03.399Z,2776
2023-03-19T12:55:03.636Z,2796
2023-03-19T12:56:03.846Z,2792
2023-03-19T12:57:04.431Z,2792
2023-03-19T12:58:04.998Z,2840
2023-03-19T12:59:04.933Z,2908
2023-03-19T13:00:06.181Z,2944
2023-03-19T13:01:06.143Z,2916
2023-03-19T13:02:06.888Z,2916
2023-03-19T13:03:07.354Z,2992
2023-03-19T13:04:08.038Z,3452
2023-03-19T13:05:09.431Z,3296
2023-03-19T13:06:09.877Z,4864
2023-03-19T13:07:10.100Z,5212
2023-03-19T13:08:11.050Z,4128
2023-03-19T13:09:11.978Z,3420
2023-03-19T13:10:12.041Z,3260
2023-03-19T13:11:12.052Z,3300
2023-03-19T13:12:13.721Z,3584
2023-03-19T13:13:13.966Z,3768
2023-03-19T13:14:13.592Z,4012
2023-03-19T13:15:14.824Z,3756
2023-03-19T13:16:14.917Z,3644
2023-03-19T13:17:15.787Z,3548
2023-03-19T13:18:16.671Z,3660
2023-03-19T13:19:16.622Z,3980
2023-03-19T13:20:16.849Z,3552
2023-03-19T13:21:17.350Z,3480
2023-03-19T13:22:17.724Z,3420
2023-03-19T13:23:20.776Z,3368
2023-03-19T13:24:19.098Z,3448
2023-03-19T13:25:19.041Z,3468
2023-03-19T13:26:19.846Z,3512
2023-03-19T13:27:21.732Z,3548
2023-03-19T13:28:22.391Z,3532
2023-03-19T13:29:22.336Z,3624
2023-03-19T13:30:22.590Z,3988
2023-03-19T13:31:23.700Z,5856
2023-03-19T13:32:23.433Z,4416
2023-03-19T13:33:24.991Z,8104
2023-03-19T13:34:24.942Z,7412
2023-03-19T13:35:25.185Z,4656
2023-03-19T13:36:25.480Z,3996
2023-03-19T13:37:26.428Z,5228
2023-03-19T13:38:26.654Z,4720
2023-03-19T13:39:26.903Z,6136
2023-03-19T13:40:26.841Z,3820
2023-03-19T13:41:27.417Z,3912
2023-03-19T13:42:28.714Z,2948
2023-03-19T13:43:38.867Z,2816
2023-03-19T13:44:29.091Z,2912
2023-03-19T13:45:30.329Z,3224
2023-03-19T13:46:30.421Z,3012
2023-03-19T13:47:30.485Z,2944
2023-03-19T13:48:35.777Z,2748
2023-03-19T13:49:32.745Z,2604
2023-03-19T13:50:33.128Z,2512
2023-03-19T13:51:33.682Z,2368
2023-03-19T13:52:34.902Z,2268
2023-03-19T13:53:34.858Z,2192
2023-03-19T13:54:36.368Z,2128
2023-03-19T13:55:36.908Z,2072
2023-03-19T13:56:42.050Z,1984
2023-03-19T13:57:43.477Z,1924
2023-03-19T13:58:43.723Z,1860
2023-03-19T13:59:44.002Z,1816
2023-03-19T14:00:44.808Z,1812
2023-03-19T14:01:45.379Z,1808
2023-03-19T14:02:45.070Z,2388
2023-03-19T14:03:46.721Z,1896
2023-03-19T14:04:47.242Z,1844
2023-03-19T14:05:47.544Z,1888